createdAt,value
2023-05-13T00:00:00.256Z,7.00
2023-05-13T00:01:01.149Z,7.30
2023-05-13T00:02:02.051Z,7.50
2023-05-13T00:03:03.004Z,6.90
2023-05-13T00:04:03.937Z,7.40
2023-05-13T00:05:04.837Z,7.20
2023-05-13T00:06:05.755Z,7.50
2023-05-13T00:07:06.667Z,7.20
2023-05-13T00:08:07.667Z,7.10
2023-05-13T00:09:08.492Z,7.10
2023-05-13T00:10:09.389Z,7.40
2023-05-13T00:11:09.999Z,7.20
2023-05-13T00:12:10.501Z,6.90
2023-05-13T00:13:11.256Z,7.90
2023-05-13T00:14:11.899Z,6.90
2023-05-13T00:15:12.422Z,7.50
2023-05-13T00:16:13.005Z,7.50
2023-05-13T00:17:13.513Z,7.70
2023-05-13T00:18:14.468Z,6.90
2023-05-13T00:19:15.310Z,7.40
2023-05-13T00:20:15.802Z,7.30
2023-05-13T00:21:16.862Z,7.20
2023-05-13T00:22:17.779Z,7.80
2023-05-13T00:23:18.352Z,7.40
2023-05-13T00:24:18.875Z,6.90
2023-05-13T00:25:19.874Z,7.40
2023-05-13T00:26:20.967Z,7.10
2023-05-13T00:27:21.412Z,7.20
2023-05-13T00:28:22.195Z,7.10
2023-05-13T00:29:22.797Z,7.30
2023-05-13T00:30:23.677Z,7.30
2023-05-13T00:31:24.424Z,7.00
2023-05-13T00:32:25.041Z,8.10
2023-05-13T00:33:26.563Z,6.60
2023-05-13T00:34:27.472Z,7.00
2023-05-13T00:35:28.039Z,7.40
2023-05-13T00:36:28.655Z,7.20
2023-05-13T00:37:28.420Z,7.50
2023-05-13T00:38:29.113Z,6.90
2023-05-13T00:39:30.123Z,7.20
2023-05-13T00:40:30.646Z,7.10
2023-05-13T00:41:32.365Z,8.00
2023-05-13T00:42:32.018Z,7.40
2023-05-13T00:43:34.051Z,7.40
2023-05-13T00:44:33.219Z,8.00
2023-05-13T00:45:33.654Z,7.50
2023-05-13T00:46:34.892Z,7.60
2023-05-13T00:47:36.417Z,7.80
2023-05-13T00:48:36.012Z,7.50
2023-05-13T00:49:37.523Z,7.80
2023-05-13T00:50:37.589Z,7.70
2023-05-13T00:51:38.132Z,7.10
2023-05-13T00:52:38.664Z,6.80
2023-05-13T00:53:40.209Z,7.20
2023-05-13T00:54:40.388Z,7.10
2023-05-13T00:55:40.489Z,7.80
2023-05-13T00:56:41.107Z,7.80
2023-05-13T00:57:41.728Z,7.30
2023-05-13T00:58:42.488Z,7.90
2023-05-13T00:59:43.265Z,7.60
2023-05-13T01:00:44.111Z,7.60
2023-05-13T01:01:44.784Z,7.90
2023-05-13T01:02:45.322Z,7.70
2023-05-13T01:03:46.008Z,7.30
2023-05-13T01:04:47.661Z,7.70
2023-05-13T01:05:47.772Z,7.30
2023-05-13T01:06:47.850Z,8.00
2023-05-13T01:07:49.393Z,7.40
2023-05-13T01:08:49.151Z,8.10
2023-05-13T01:09:50.893Z,7.80
2023-05-13T01:10:50.486Z,7.60
2023-05-13T01:11:52.047Z,7.60
2023-05-13T01:12:51.642Z,7.40
2023-05-13T01:13:53.287Z,7.60
2023-05-13T01:14:52.900Z,7.80
2023-05-13T01:15:53.544Z,8.40
2023-05-13T01:16:54.211Z,8.00
2023-05-13T01:17:54.891Z,8.10
2023-05-13T01:18:55.835Z,7.40
2023-05-13T01:19:56.297Z,8.00
2023-05-13T01:20:57.117Z,8.00
2023-05-13T01:21:57.713Z,7.70
2023-05-13T01:22:59.158Z,8.20
2023-05-13T01:23:58.888Z,7.70
2023-05-13T01:24:59.374Z,7.70
2023-05-13T01:26:00.250Z,7.70
2023-05-13T01:27:00.832Z,8.00
2023-05-13T01:28:01.762Z,8.40
2023-05-13T01:29:02.231Z,8.00
2023-05-13T01:30:02.710Z,8.30
2023-05-13T01:31:03.330Z,7.70
2023-05-13T01:32:04.282Z,7.90
2023-05-13T01:33:04.984Z,8.50
2023-05-13T01:34:05.926Z,8.30
2023-05-13T01:35:06.424Z,8.00
2023-05-13T01:36:07.159Z,8.00
2023-05-13T01:37:07.793Z,8.40
2023-05-13T01:38:08.388Z,8.00
2023-05-13T01:39:09.091Z,8.10
2023-05-13T01:40:20.500Z,7.90
2023-05-13T01:41:11.436Z,8.30
2023-05-13T01:42:11.980Z,8.60
2023-05-13T01:43:13.863Z,8.10
2023-05-13T01:44:12.164Z,8.60
2023-05-13T01:45:12.734Z,8.10
2023-05-13T01:46:13.876Z,8.40
2023-05-13T01:47:14.514Z,8.50
2023-05-13T01:48:15.069Z,8.30
2023-05-13T01:49:15.516Z,8.40
2023-05-13T01:50:16.229Z,8.30
2023-05-13T01:51:16.900Z,8.40
2023-05-13T01:52:18.554Z,7.80
2023-05-13T01:53:18.101Z,8.60
2023-05-13T01:54:18.783Z,8.40
2023-05-13T01:55:19.445Z,8.00
2023-05-13T01:56:19.963Z,8.40
2023-05-13T01:57:20.664Z,8.50
2023-05-13T01:58:21.705Z,9.20
2023-05-13T01:59:22.311Z,9.10
2023-05-13T02:00:23.053Z,8.70
2023-05-13T02:01:23.832Z,8.60
2023-05-13T02:02:24.589Z,8.50
2023-05-13T02:03:25.189Z,8.90
2023-05-13T02:04:26.960Z,8.60
2023-05-13T02:05:26.636Z,9.00
2023-05-13T02:06:27.206Z,8.90
2023-05-13T02:07:27.968Z,8.70
2023-05-13T02:08:29.607Z,8.70
2023-05-13T02:09:29.221Z,8.60
2023-05-13T02:10:29.768Z,9.20
2023-05-13T02:11:30.343Z,9.50
2023-05-13T02:12:30.966Z,8.90
2023-05-13T02:13:32.117Z,9.30
2023-05-13T02:14:32.230Z,8.90
2023-05-13T02:15:32.685Z,9.10
2023-05-13T02:16:33.854Z,9.20
2023-05-13T02:17:34.507Z,9.30
2023-05-13T02:18:35.324Z,9.10
2023-05-13T02:19:36.146Z,8.70
2023-05-13T02:20:36.675Z,9.30
2023-05-13T02:21:37.436Z,9.00
2023-05-13T02:22:38.095Z,9.20
2023-05-13T02:23:38.906Z,9.20
2023-05-13T02:24:39.350Z,8.90
2023-05-13T02:25:40.340Z,10.00
2023-05-13T02:26:40.972Z,9.90
2023-05-13T02:27:42.612Z,9.30
2023-05-13T02:28:42.456Z,9.20
2023-05-13T02:29:43.135Z,9.70
2023-05-13T02:30:43.819Z,9.70
2023-05-13T02:31:45.347Z,9.70
2023-05-13T02:32:44.971Z,9.60
2023-05-13T02:33:45.638Z,10.00
2023-05-13T02:35:08.426Z,9.60
2023-05-13T02:35:47.965Z,9.30
2023-05-13T02:36:47.658Z,9.70
2023-05-13T02:37:49.297Z,9.70
2023-05-13T02:38:48.779Z,10.20
2023-05-13T02:39:49.428Z,10.30
2023-05-13T02:40:50.074Z,9.90
2023-05-13T02:41:50.719Z,10.00
2023-05-13T02:42:51.516Z,10.40
2023-05-13T02:43:52.007Z,10.50
2023-05-13T02:44:52.993Z,9.70
2023-05-13T02:45:53.773Z,10.50
2023-05-13T02:46:54.399Z,10.30
2023-05-13T02:47:56.487Z,9.30
2023-05-13T02:48:55.535Z,10.00
2023-05-13T02:49:57.605Z,9.90
2023-05-13T02:50:58.202Z,10.30
2023-05-13T02:51:57.867Z,10.30
2023-05-13T02:52:59.629Z,10.30
2023-05-13T02:54:00.230Z,11.00
2023-05-13T02:54:59.963Z,10.40
2023-05-13T02:56:00.611Z,10.10
2023-05-13T02:57:02.326Z,10.30
2023-05-13T02:58:02.370Z,10.30
2023-05-13T02:59:02.906Z,10.20
2023-05-13T03:00:03.468Z,10.80
2023-05-13T03:01:04.194Z,10.50
2023-05-13T03:02:04.849Z,10.10
2023-05-13T03:03:05.422Z,11.00
2023-05-13T03:04:07.357Z,11.30
2023-05-13T03:05:06.967Z,10.90
2023-05-13T03:06:08.610Z,11.00
2023-05-13T03:07:08.219Z,11.30
2023-05-13T03:08:08.821Z,11.50
2023-05-13T03:09:09.424Z,11.50
2023-05-13T03:10:10.445Z,11.00
2023-05-13T03:11:10.938Z,11.00
2023-05-13T03:12:12.516Z,11.10
2023-05-13T03:13:15.640Z,11.80
2023-05-13T03:14:13.174Z,10.90
2023-05-13T03:15:14.782Z,11.80
2023-05-13T03:16:15.418Z,11.00
2023-05-13T03:17:15.084Z,11.50
2023-05-13T03:18:15.778Z,11.40
2023-05-13T03:19:17.478Z,11.10
2023-05-13T03:20:17.419Z,11.90
2023-05-13T03:21:18.061Z,11.10
2023-05-13T03:22:18.616Z,11.50
2023-05-13T03:23:19.313Z,11.40
2023-05-13T03:24:20.020Z,11.80
2023-05-13T03:25:20.706Z,11.30
2023-05-13T03:26:21.170Z,11.90
2023-05-13T03:27:21.939Z,11.50
2023-05-13T03:28:23.816Z,11.50
2023-05-13T03:29:23.401Z,11.90
2023-05-13T03:30:23.943Z,12.00
2023-05-13T03:31:24.447Z,12.20
2023-05-13T03:32:25.460Z,12.00
2023-05-13T03:33:26.241Z,11.80
2023-05-13T03:34:28.067Z,12.40
2023-05-13T03:35:27.903Z,11.90
2023-05-13T03:36:28.720Z,12.10
2023-05-13T03:37:29.368Z,12.20
2023-05-13T03:38:29.875Z,12.10
2023-05-13T03:39:30.568Z,11.90
2023-05-13T03:40:31.319Z,12.40
2023-05-13T03:41:31.905Z,12.00
2023-05-13T03:42:32.906Z,12.20
2023-05-13T03:43:35.226Z,12.10
2023-05-13T03:44:34.746Z,11.40
2023-05-13T03:45:35.381Z,12.50
2023-05-13T03:46:35.937Z,11.80
2023-05-13T03:47:36.480Z,12.00
2023-05-13T03:48:37.028Z,12.00
2023-05-13T03:49:38.692Z,11.90
2023-05-13T03:50:38.434Z,12.30
2023-05-13T03:51:39.908Z,12.30
2023-05-13T03:52:39.860Z,12.40
2023-05-13T03:53:40.878Z,12.50
2023-05-13T03:54:41.554Z,12.30
2023-05-13T03:55:43.111Z,12.00
2023-05-13T03:56:42.757Z,12.00
2023-05-13T03:57:43.347Z,12.40
2023-05-13T03:58:44.327Z,12.30
2023-05-13T03:59:44.372Z,11.80
2023-05-13T04:00:44.981Z,12.40
2023-05-13T04:01:46.559Z,11.10
2023-05-13T04:02:46.201Z,13.00
2023-05-13T04:03:46.766Z,12.70
2023-05-13T04:04:48.596Z,12.50
2023-05-13T04:05:48.144Z,13.30
2023-05-13T04:06:48.813Z,11.90
2023-05-13T04:07:49.351Z,12.40
2023-05-13T04:08:49.957Z,12.00
2023-05-13T04:09:50.526Z,11.60
2023-05-13T04:10:51.909Z,12.70
2023-05-13T04:11:51.946Z,12.10
2023-05-13T04:12:52.533Z,11.80
2023-05-13T04:13:53.583Z,11.90
2023-05-13T04:14:54.221Z,12.00
2023-05-13T04:15:54.794Z,12.00
2023-05-13T04:16:55.422Z,11.40
2023-05-13T04:17:56.264Z,11.30
2023-05-13T04:18:57.052Z,12.00
2023-05-13T04:19:57.669Z,11.80
2023-05-13T04:20:58.649Z,12.10
2023-05-13T04:21:59.199Z,11.70
2023-05-13T04:22:59.744Z,12.00
2023-05-13T04:24:00.427Z,11.50
2023-05-13T04:25:00.919Z,11.80
2023-05-13T04:26:01.495Z,11.70
2023-05-13T04:27:02.061Z,11.80
2023-05-13T04:28:02.951Z,11.80
2023-05-13T04:29:03.562Z,12.30
2023-05-13T04:30:04.299Z,12.00
2023-05-13T04:31:05.124Z,11.80
2023-05-13T04:32:05.772Z,11.40
2023-05-13T04:33:06.386Z,11.60
2023-05-13T04:34:06.995Z,10.90
2023-05-13T04:35:07.806Z,11.70
2023-05-13T04:36:09.381Z,11.30
2023-05-13T04:37:08.944Z,12.20
2023-05-13T04:38:09.595Z,11.70
2023-05-13T04:39:10.636Z,11.90
2023-05-13T04:40:10.897Z,11.90
2023-05-13T04:41:11.387Z,11.60
2023-05-13T04:42:13.350Z,11.70
2023-05-13T04:43:13.520Z,12.00
2023-05-13T04:44:14.148Z,10.90
2023-05-13T04:45:17.204Z,11.60
2023-05-13T04:46:15.394Z,12.00
2023-05-13T04:47:15.923Z,12.20
2023-05-13T04:48:17.406Z,11.80
2023-05-13T04:49:18.072Z,11.60
2023-05-13T04:50:17.961Z,11.20
2023-05-13T04:51:18.833Z,11.70
2023-05-13T04:52:19.706Z,11.00
2023-05-13T04:53:20.390Z,11.50
2023-05-13T04:54:20.986Z,11.50
2023-05-13T04:55:21.722Z,11.50
2023-05-13T04:56:22.184Z,11.30
2023-05-13T04:57:23.377Z,11.70
2023-05-13T04:58:23.860Z,11.40
2023-05-13T04:59:24.556Z,11.20
2023-05-13T05:00:25.096Z,11.00
2023-05-13T05:01:25.891Z,11.10
2023-05-13T05:02:26.578Z,11.90
2023-05-13T05:03:27.405Z,11.40
2023-05-13T05:04:27.926Z,11.10
2023-05-13T05:05:29.490Z,11.30
2023-05-13T05:06:29.056Z,11.50
2023-05-13T05:07:30.534Z,11.20
2023-05-13T05:08:31.205Z,10.90
2023-05-13T05:09:30.707Z,11.00
2023-05-13T05:10:33.633Z,11.90
2023-05-13T05:11:32.193Z,11.00
2023-05-13T05:12:32.850Z,11.80
2023-05-13T05:13:33.311Z,11.00
2023-05-13T05:14:33.891Z,11.20
2023-05-13T05:15:34.547Z,11.40
2023-05-13T05:16:35.203Z,11.30
2023-05-13T05:17:36.884Z,11.20
2023-05-13T05:18:36.768Z,11.30
2023-05-13T05:19:37.279Z,11.20
2023-05-13T05:20:38.905Z,10.90
2023-05-13T05:21:38.561Z,11.00
2023-05-13T05:22:39.306Z,10.90
2023-05-13T05:23:40.026Z,11.40
2023-05-13T05:24:40.676Z,10.60
2023-05-13T05:25:41.502Z,10.40
2023-05-13T05:26:42.839Z,10.30
2023-05-13T05:27:42.920Z,10.00
2023-05-13T05:28:44.941Z,9.90
2023-05-13T05:29:44.502Z,10.00
2023-05-13T05:30:45.195Z,9.60
2023-05-13T05:31:45.918Z,9.70
2023-05-13T05:32:46.575Z,10.10
2023-05-13T05:33:47.108Z,9.60
2023-05-13T05:34:47.722Z,9.50
2023-05-13T05:35:48.529Z,9.90
2023-05-13T05:36:50.200Z,9.70
2023-05-13T05:37:49.905Z,10.10
2023-05-13T05:38:50.510Z,9.70
2023-05-13T05:39:51.006Z,9.50
2023-05-13T05:40:51.714Z,9.30
2023-05-13T05:42:15.696Z,9.20
2023-05-13T05:42:53.287Z,9.60
2023-05-13T05:43:53.808Z,9.70
2023-05-13T05:44:54.577Z,9.30
2023-05-13T05:45:55.223Z,9.60
2023-05-13T05:46:55.810Z,9.40
2023-05-13T05:47:56.637Z,9.10
2023-05-13T05:48:57.235Z,9.40
2023-05-13T05:49:57.717Z,8.80
2023-05-13T05:50:59.458Z,9.20
2023-05-13T05:51:59.011Z,8.80
2023-05-13T05:53:00.111Z,8.70
2023-05-13T05:54:00.769Z,9.40
2023-05-13T05:55:02.391Z,8.50
2023-05-13T05:56:01.952Z,8.70
2023-05-13T05:57:02.856Z,8.70
2023-05-13T05:58:04.936Z,8.80
2023-05-13T05:59:04.707Z,9.20
2023-05-13T06:00:06.533Z,8.40
2023-05-13T06:01:06.136Z,8.80
2023-05-13T06:02:06.951Z,8.70
2023-05-13T06:03:07.717Z,8.50
2023-05-13T06:04:08.568Z,8.30
2023-05-13T06:05:09.128Z,8.40
2023-05-13T06:06:09.706Z,9.10
2023-05-13T06:07:11.282Z,8.30
2023-05-13T06:08:10.810Z,8.50
2023-05-13T06:09:11.591Z,8.70
2023-05-13T06:10:12.495Z,8.00
2023-05-13T06:11:13.129Z,8.80
2023-05-13T06:12:13.694Z,8.00
2023-05-13T06:13:15.611Z,8.60
2023-05-13T06:14:15.317Z,8.40
2023-05-13T06:15:16.467Z,8.20
2023-05-13T06:16:17.588Z,8.50
2023-05-13T06:17:17.419Z,8.20
2023-05-13T06:18:18.153Z,8.20
2023-05-13T06:19:18.867Z,8.00
2023-05-13T06:20:19.977Z,8.10
2023-05-13T06:21:20.148Z,7.30
2023-05-13T06:22:21.011Z,7.90
2023-05-13T06:23:21.840Z,8.40
2023-05-13T06:24:22.286Z,8.20
2023-05-13T06:25:22.894Z,8.10
2023-05-13T06:26:23.918Z,7.90
2023-05-13T06:27:25.526Z,8.60
2023-05-13T06:28:25.084Z,8.20
2023-05-13T06:29:26.582Z,8.30
2023-05-13T06:30:26.213Z,8.00
2023-05-13T06:31:27.297Z,8.30
2023-05-13T06:32:27.909Z,8.50
2023-05-13T06:33:28.030Z,8.20
2023-05-13T06:34:28.605Z,8.40
2023-05-13T06:35:29.369Z,7.70
2023-05-13T06:36:30.875Z,9.00
2023-05-13T06:37:30.720Z,8.40
2023-05-13T06:38:31.389Z,8.50
2023-05-13T06:39:33.274Z,8.70
2023-05-13T06:40:32.882Z,8.30
2023-05-13T06:41:33.337Z,8.00
2023-05-13T06:42:34.445Z,8.20
2023-05-13T06:43:35.931Z,8.50
2023-05-13T06:44:35.527Z,8.50
2023-05-13T06:45:37.307Z,7.90
2023-05-13T06:46:37.042Z,8.40
2023-05-13T06:47:38.129Z,8.40
2023-05-13T06:48:38.254Z,8.90
2023-05-13T06:49:38.915Z,8.80
2023-05-13T06:50:39.494Z,8.70
2023-05-13T06:51:40.219Z,8.30
2023-05-13T06:52:42.055Z,8.90
2023-05-13T06:53:41.581Z,8.40
2023-05-13T06:54:42.523Z,8.90
2023-05-13T06:55:43.193Z,8.80
2023-05-13T06:56:43.850Z,8.80
2023-05-13T06:57:45.357Z,9.00
2023-05-13T06:58:45.950Z,8.40
2023-05-13T06:59:45.458Z,8.60
2023-05-13T07:00:46.556Z,8.90
2023-05-13T07:01:47.302Z,8.90
2023-05-13T07:02:47.882Z,8.30
2023-05-13T07:03:48.467Z,8.70
2023-05-13T07:04:49.312Z,8.40
2023-05-13T07:05:50.285Z,8.80
2023-05-13T07:06:51.396Z,8.50
2023-05-13T07:07:51.951Z,8.60
2023-05-13T07:08:52.544Z,8.40
2023-05-13T07:09:53.149Z,7.90
2023-05-13T07:10:53.449Z,8.90
2023-05-13T07:11:53.581Z,8.90
2023-05-13T07:12:55.545Z,8.90
2023-05-13T07:13:56.249Z,8.80
2023-05-13T07:14:55.803Z,8.80
2023-05-13T07:15:56.858Z,8.40
2023-05-13T07:16:58.481Z,8.10
2023-05-13T07:17:57.998Z,8.70
2023-05-13T07:18:59.886Z,8.80
2023-05-13T07:19:59.490Z,8.00
2023-05-13T07:21:00.362Z,7.90
2023-05-13T07:22:00.838Z,7.90
2023-05-13T07:23:01.772Z,7.50
2023-05-13T07:24:02.633Z,7.50
2023-05-13T07:25:03.543Z,7.60
2023-05-13T07:26:04.439Z,7.40
2023-05-13T07:27:05.314Z,7.30
2023-05-13T07:28:06.206Z,7.10
2023-05-13T07:29:07.106Z,7.20
2023-05-13T07:30:07.984Z,7.00
2023-05-13T07:31:08.909Z,7.40
2023-05-13T07:32:09.769Z,6.80
2023-05-13T07:33:10.691Z,7.00
2023-05-13T07:34:11.551Z,7.00
2023-05-13T07:35:12.488Z,6.80
2023-05-13T07:36:13.345Z,6.70
2023-05-13T07:37:14.239Z,6.40
2023-05-13T07:38:15.122Z,7.00
2023-05-13T07:39:16.010Z,6.30
2023-05-13T07:40:16.889Z,6.20
2023-05-13T07:41:17.818Z,6.20
2023-05-13T07:42:42.029Z,6.10
2023-05-13T07:43:19.331Z,6.10
2023-05-13T07:44:20.219Z,6.30
2023-05-13T07:45:21.443Z,6.20
2023-05-13T07:46:22.108Z,6.20
2023-05-13T07:47:23.064Z,6.30
2023-05-13T07:48:23.979Z,5.80
2023-05-13T07:49:24.929Z,6.20
2023-05-13T07:50:25.786Z,5.70
2023-05-13T07:51:26.673Z,5.60
2023-05-13T07:52:27.550Z,5.50
2023-05-13T07:53:28.475Z,5.20
2023-05-13T07:54:29.380Z,5.30
2023-05-13T07:55:30.243Z,5.20
2023-05-13T07:56:31.145Z,5.30
2023-05-13T07:57:32.031Z,4.90
2023-05-13T07:58:32.926Z,5.10
2023-05-13T07:59:33.862Z,5.40
2023-05-13T08:00:34.758Z,5.10
2023-05-13T08:01:35.636Z,5.00
2023-05-13T08:02:36.573Z,4.70
2023-05-13T08:03:37.568Z,4.90
2023-05-13T08:04:38.092Z,5.40
2023-05-13T08:05:38.971Z,5.00
2023-05-13T08:06:40.328Z,5.00
2023-05-13T08:07:40.882Z,5.10
2023-05-13T08:08:41.706Z,5.30
2023-05-13T08:09:42.601Z,4.70
2023-05-13T08:10:43.513Z,5.40
2023-05-13T08:11:44.410Z,5.10
2023-05-13T08:12:45.319Z,4.90
2023-05-13T08:13:46.164Z,5.00
2023-05-13T08:14:48.879Z,5.30
2023-05-13T08:15:47.947Z,5.10
2023-05-13T08:16:48.928Z,5.30
2023-05-13T08:17:49.404Z,5.40
2023-05-13T08:18:50.330Z,5.50
2023-05-13T08:19:51.274Z,5.00
2023-05-13T08:20:52.127Z,5.20
2023-05-13T08:21:53.019Z,5.50
2023-05-13T08:22:53.904Z,5.50
2023-05-13T08:23:55.094Z,5.50
2023-05-13T08:24:55.466Z,5.20
2023-05-13T08:25:56.339Z,5.40
2023-05-13T08:26:57.397Z,4.80
2023-05-13T08:27:57.765Z,5.10
2023-05-13T08:28:58.670Z,5.10
2023-05-13T08:29:59.599Z,5.20
2023-05-13T08:31:00.490Z,5.40
2023-05-13T08:32:01.413Z,5.10
2023-05-13T08:33:02.343Z,5.20
2023-05-13T08:34:03.250Z,5.00
2023-05-13T08:35:04.145Z,5.40
2023-05-13T08:36:05.047Z,4.90
2023-05-13T08:37:06.145Z,4.80
2023-05-13T08:38:06.567Z,4.90
2023-05-13T08:39:07.458Z,5.00
2023-05-13T08:40:08.332Z,5.20
2023-05-13T08:41:09.475Z,5.00
2023-05-13T08:42:09.865Z,5.10
2023-05-13T08:43:10.731Z,5.10
2023-05-13T08:44:11.617Z,5.50
2023-05-13T08:45:12.510Z,5.10
2023-05-13T08:46:13.459Z,5.20
2023-05-13T08:47:20.734Z,5.20
2023-05-13T08:48:15.142Z,4.90
2023-05-13T08:49:16.023Z,4.70
2023-05-13T08:50:16.902Z,4.70
2023-05-13T08:51:17.811Z,5.00
2023-05-13T08:52:18.746Z,5.30
2023-05-13T08:53:19.582Z,4.90
2023-05-13T08:54:24.015Z,5.10
2023-05-13T08:55:21.413Z,5.30
2023-05-13T08:56:21.922Z,4.90
2023-05-13T08:57:22.815Z,4.90
2023-05-13T08:58:23.708Z,5.10
2023-05-13T08:59:24.598Z,5.40
2023-05-13T09:00:25.510Z,4.80
2023-05-13T09:01:26.431Z,5.30
2023-05-13T09:02:27.394Z,5.10
2023-05-13T09:03:28.267Z,4.70
2023-05-13T09:04:29.189Z,4.80
2023-05-13T09:05:30.109Z,5.00
2023-05-13T09:06:31.017Z,4.80
2023-05-13T09:07:32.188Z,4.70
2023-05-13T09:08:32.575Z,5.00
2023-05-13T09:09:33.443Z,5.00
2023-05-13T09:10:34.319Z,5.10
2023-05-13T09:11:35.248Z,5.50
2023-05-13T09:12:36.159Z,5.00
2023-05-13T09:13:37.003Z,5.10
2023-05-13T09:14:37.899Z,4.90
2023-05-13T09:15:38.789Z,4.70
2023-05-13T09:16:39.661Z,4.40
2023-05-13T09:17:40.586Z,4.60
2023-05-13T09:18:41.490Z,4.70
2023-05-13T09:19:42.594Z,4.40
2023-05-13T09:20:43.016Z,4.80
2023-05-13T09:21:43.917Z,4.60
2023-05-13T09:22:44.822Z,5.00
2023-05-13T09:23:45.705Z,4.70
2023-05-13T09:24:46.226Z,4.80
2023-05-13T09:25:47.112Z,4.90
2023-05-13T09:26:47.978Z,5.20
2023-05-13T09:27:48.890Z,4.70
2023-05-13T09:28:49.817Z,4.70
2023-05-13T09:29:50.691Z,4.60
2023-05-13T09:30:51.608Z,4.90
2023-05-13T09:31:52.491Z,4.70
2023-05-13T09:32:53.469Z,4.20
2023-05-13T09:33:54.342Z,5.10
2023-05-13T09:34:55.248Z,4.50
2023-05-13T09:35:56.128Z,4.60
2023-05-13T09:37:19.306Z,4.70
2023-05-13T09:37:57.620Z,4.60
2023-05-13T09:38:58.515Z,4.80
2023-05-13T09:39:59.390Z,4.30
2023-05-13T09:41:00.309Z,4.70
2023-05-13T09:42:02.587Z,4.70
2023-05-13T09:43:01.775Z,4.70
2023-05-13T09:44:02.651Z,4.80
2023-05-13T09:45:03.555Z,4.70
2023-05-13T09:46:04.399Z,4.70
2023-05-13T09:47:05.359Z,4.60
2023-05-13T09:48:06.522Z,4.40
2023-05-13T09:49:06.889Z,4.70
2023-05-13T09:50:07.776Z,4.30
2023-05-13T09:51:08.639Z,4.30
2023-05-13T09:52:09.558Z,4.80
2023-05-13T09:53:10.467Z,4.40
2023-05-13T09:54:12.615Z,4.30
2023-05-13T09:55:12.654Z,5.20
2023-05-13T09:56:13.065Z,4.60
2023-05-13T09:57:13.950Z,4.60
2023-05-13T09:58:14.839Z,4.60
2023-05-13T09:59:15.790Z,4.50
2023-05-13T10:00:28.805Z,4.40
2023-05-13T10:01:18.480Z,4.80
2023-05-13T10:02:18.327Z,4.90
2023-05-13T10:03:19.260Z,4.50
2023-05-13T10:04:20.147Z,4.50
2023-05-13T10:05:21.019Z,4.30
2023-05-13T10:06:21.898Z,4.70
2023-05-13T10:07:24.152Z,4.90
2023-05-13T10:08:23.539Z,4.50
2023-05-13T10:09:24.413Z,4.20
2023-05-13T10:10:25.304Z,4.20
2023-05-13T10:11:26.213Z,4.10
2023-05-13T10:12:27.084Z,4.60
2023-05-13T10:13:28.000Z,4.20
2023-05-13T10:14:28.865Z,4.40
2023-05-13T10:15:29.772Z,3.90
2023-05-13T10:16:30.657Z,4.00
2023-05-13T10:17:31.559Z,3.90
2023-05-13T10:18:33.025Z,4.30
2023-05-13T10:19:32.940Z,3.90
2023-05-13T10:20:33.795Z,4.40
2023-05-13T10:21:34.672Z,4.20
2023-05-13T10:22:35.593Z,4.10
2023-05-13T10:23:36.492Z,4.20
2023-05-13T10:24:38.696Z,4.50
2023-05-13T10:25:38.326Z,4.40
2023-05-13T10:26:39.161Z,4.20
2023-05-13T10:27:40.044Z,4.20
2023-05-13T10:28:40.938Z,4.70
2023-05-13T10:29:41.818Z,4.60
2023-05-13T10:30:42.707Z,5.00
2023-05-13T10:31:43.889Z,4.50
2023-05-13T10:32:44.256Z,4.60
2023-05-13T10:33:45.165Z,4.20
2023-05-13T10:34:46.044Z,4.20
2023-05-13T10:35:46.910Z,4.40
2023-05-13T10:36:47.793Z,4.40
2023-05-13T10:37:48.693Z,4.60
2023-05-13T10:38:49.629Z,4.40
2023-05-13T10:39:50.485Z,4.40
2023-05-13T10:40:51.373Z,4.20
2023-05-13T10:41:52.282Z,4.30
2023-05-13T10:42:53.179Z,4.20
2023-05-13T10:43:54.071Z,4.80
2023-05-13T10:44:54.961Z,4.40
2023-05-13T10:45:55.904Z,4.20
2023-05-13T10:46:56.840Z,4.10
2023-05-13T10:47:57.939Z,4.30
2023-05-13T10:48:58.503Z,4.20
2023-05-13T10:49:59.455Z,4.30
2023-05-13T10:51:00.291Z,4.70
2023-05-13T10:52:01.186Z,4.30
2023-05-13T10:53:02.041Z,4.70
2023-05-13T10:54:02.970Z,4.10
2023-05-13T10:55:03.837Z,4.60
2023-05-13T10:56:04.695Z,4.40
2023-05-13T10:57:05.589Z,4.40
2023-05-13T10:58:06.473Z,4.20
2023-05-13T10:59:07.375Z,4.30
2023-05-13T11:00:08.249Z,4.30
2023-05-13T11:01:09.152Z,4.60
2023-05-13T11:02:10.107Z,4.50
2023-05-13T11:03:11.106Z,4.20
2023-05-13T11:04:12.065Z,4.60
2023-05-13T11:05:12.476Z,4.60
2023-05-13T11:06:13.372Z,4.60
2023-05-13T11:07:14.250Z,4.80
2023-05-13T11:08:15.131Z,4.60
2023-05-13T11:09:16.064Z,4.90
2023-05-13T11:10:16.924Z,4.40
2023-05-13T11:11:17.802Z,4.80
2023-05-13T11:12:18.695Z,4.50
2023-05-13T11:13:19.578Z,4.50
2023-05-13T11:14:20.477Z,4.40
2023-05-13T11:15:21.365Z,4.80
2023-05-13T11:16:22.366Z,4.50
2023-05-13T11:17:22.749Z,4.30
2023-05-13T11:18:23.635Z,4.80
2023-05-13T11:19:24.536Z,4.40
2023-05-13T11:20:25.421Z,3.80
2023-05-13T11:21:26.304Z,4.20
2023-05-13T11:22:27.160Z,4.30
2023-05-13T11:23:28.034Z,3.90
2023-05-13T11:24:28.948Z,3.90
2023-05-13T11:25:29.812Z,4.00
2023-05-13T11:26:30.693Z,4.40
2023-05-13T11:27:31.548Z,4.40
2023-05-13T11:28:32.728Z,4.00
2023-05-13T11:29:33.129Z,4.00
2023-05-13T11:30:33.988Z,3.90
2023-05-13T11:31:34.904Z,4.80
2023-05-13T11:32:35.793Z,4.90
2023-05-13T11:33:36.663Z,4.00
2023-05-13T11:34:39.957Z,4.00
2023-05-13T11:35:38.347Z,3.80
2023-05-13T11:36:39.232Z,4.30
2023-05-13T11:37:40.098Z,3.90
2023-05-13T11:38:40.987Z,3.90
2023-05-13T11:39:41.898Z,3.80
2023-05-13T11:40:42.756Z,3.90
2023-05-13T11:41:44.936Z,3.60
2023-05-13T11:42:44.339Z,3.60
2023-05-13T11:43:45.211Z,4.20
2023-05-13T11:44:46.053Z,3.70
2023-05-13T11:45:46.978Z,3.30
2023-05-13T11:46:47.816Z,3.40
2023-05-13T11:47:48.718Z,3.60
2023-05-13T11:48:49.604Z,3.60
2023-05-13T11:49:50.527Z,3.70
2023-05-13T11:50:51.394Z,3.50
2023-05-13T11:51:52.274Z,3.50
2023-05-13T11:52:53.168Z,3.30
2023-05-13T11:53:54.049Z,3.40
2023-05-13T11:54:54.995Z,3.20
2023-05-13T11:55:55.869Z,3.50
2023-05-13T11:56:56.721Z,3.40
2023-05-13T11:57:57.630Z,3.30
2023-05-13T11:58:58.485Z,3.20
2023-05-13T11:59:59.395Z,3.20
2023-05-13T12:01:00.272Z,3.30
2023-05-13T12:02:01.197Z,3.70
2023-05-13T12:03:01.881Z,3.90
2023-05-13T12:04:02.409Z,3.30
2023-05-13T12:05:03.375Z,3.30
2023-05-13T12:06:03.792Z,3.40
2023-05-13T12:07:04.651Z,3.60
2023-05-13T12:08:05.533Z,3.60
2023-05-13T12:09:06.435Z,3.60
2023-05-13T12:10:07.706Z,3.50
2023-05-13T12:11:08.077Z,3.20
2023-05-13T12:12:08.986Z,3.50
2023-05-13T12:13:09.869Z,3.30
2023-05-13T12:14:10.754Z,3.30
2023-05-13T12:15:11.652Z,3.20
2023-05-13T12:16:12.567Z,3.10
2023-05-13T12:17:13.465Z,3.20
2023-05-13T12:18:14.379Z,3.00
2023-05-13T12:19:15.265Z,3.40
2023-05-13T12:20:16.240Z,3.00
2023-05-13T12:21:17.119Z,2.90
2023-05-13T12:22:17.985Z,3.60
2023-05-13T12:23:18.866Z,3.50
2023-05-13T12:24:19.799Z,3.70
2023-05-13T12:25:20.790Z,3.30
2023-05-13T12:26:21.403Z,3.60
2023-05-13T12:27:24.579Z,3.40
2023-05-13T12:28:22.934Z,3.10
2023-05-13T12:29:23.826Z,3.30
2023-05-13T12:30:24.708Z,3.60
2023-05-13T12:31:25.628Z,3.70
2023-05-13T12:32:26.533Z,3.60
2023-05-13T12:33:27.663Z,3.60
2023-05-13T12:34:28.083Z,3.40
2023-05-13T12:35:28.941Z,3.60
2023-05-13T12:36:29.826Z,3.50
2023-05-13T12:37:30.700Z,3.30
2023-05-13T12:38:31.610Z,3.30
2023-05-13T12:39:32.752Z,3.40
2023-05-13T12:40:33.180Z,3.60
2023-05-13T12:41:34.040Z,3.50
2023-05-13T12:42:34.918Z,3.70
2023-05-13T12:43:35.795Z,3.20
2023-05-13T12:44:36.689Z,3.50
2023-05-13T12:45:41.568Z,4.10
2023-05-13T12:46:38.301Z,3.30
2023-05-13T12:47:38.691Z,3.50
2023-05-13T12:48:39.580Z,3.60
2023-05-13T12:49:40.483Z,3.80
2023-05-13T12:50:41.397Z,3.40
2023-05-13T12:51:42.248Z,3.60
2023-05-13T12:52:43.127Z,3.60
2023-05-13T12:53:44.018Z,3.60
2023-05-13T12:54:44.966Z,3.50
2023-05-13T12:55:45.821Z,3.70
2023-05-13T12:56:46.681Z,3.40
2023-05-13T12:57:47.538Z,3.50
2023-05-13T12:58:48.447Z,3.40
2023-05-13T12:59:49.314Z,3.80
2023-05-13T13:00:50.262Z,3.60
2023-05-13T13:01:51.106Z,3.60
2023-05-13T13:02:52.080Z,3.60
2023-05-13T13:03:53.100Z,3.60
2023-05-13T13:04:53.499Z,3.60
2023-05-13T13:05:54.382Z,3.30
2023-05-13T13:06:55.258Z,3.50
2023-05-13T13:07:56.132Z,3.80
2023-05-13T13:08:57.004Z,3.40
2023-05-13T13:09:57.884Z,3.70
2023-05-13T13:10:58.801Z,3.20
2023-05-13T13:11:59.675Z,3.30
2023-05-13T13:13:00.555Z,2.90
2023-05-13T13:14:01.448Z,3.30
2023-05-13T13:15:03.611Z,3.10
2023-05-13T13:16:03.070Z,3.10
2023-05-13T13:17:03.929Z,3.40
2023-05-13T13:18:04.859Z,3.10
2023-05-13T13:19:05.730Z,3.00
2023-05-13T13:20:06.668Z,3.20
2023-05-13T13:21:07.553Z,3.30
2023-05-13T13:22:08.442Z,3.00